Monday, July 23, 2018, 11:10 AM EDT
Back to Local

KWST, Westerly State Airport

Location: Westerly, RI, United States Lat: 41.35
Local Time: 11:10 AM EDT (15:10 GMT) Lon: -71.8
Time Zone: US/Eastern Elev: 82 ft

Show me the last for .
Show Decoded

2018-07-23 10:53 METAR KWST 231453Z AUTO 14010G16KT 8SM CLR 26/23 A3022 RMK AO2 SLP232 T02610228
                 51008 =
2018-07-23 09:53 METAR KWST 231353Z AUTO 13009G17KT 7SM SCT027 BKN070 BKN080 26/23 A3021 RMK AO2
                 SLP230 T02560233 =
2018-07-23 09:49 METAR KWST 231349Z AUTO 14007KT 7SM BKN027 BKN070 26/23 A3021 RMK AO2 =
2018-07-23 08:53 METAR KWST 231253Z AUTO 13009KT 6SM BR FEW026 BKN045 OVC060 24/23 A3019 RMK AO2
                 SLP224 T02440228 =
2018-07-23 07:53 METAR KWST 231153Z AUTO 13008KT 5SM BR FEW005 BKN031 OVC050 23/23 A3018 RMK AO2
                 SLP220 70003 T02330228 10239 20228 50008 =
2018-07-23 07:49 METAR KWST 231149Z AUTO 14008G15KT 5SM BR SCT005 BKN031 OVC050 23/23 A3019 RMK
                 AO2 =
2018-07-23 07:18 METAR KWST 231118Z AUTO 13008KT 5SM BR BKN006 BKN033 OVC047 23/23 A3018 RMK AO2
                 T02330228 =
2018-07-23 06:53 METAR KWST 231053Z AUTO 13008KT 5SM BR FEW008 BKN033 OVC060 23/23 A3017 RMK AO2
                 SLP217 T02330228 =
2018-07-23 06:18 METAR KWST 231018Z AUTO 13007KT 4SM BR OVC004 23/23 A3017 RMK AO2 T02330228 =
2018-07-23 06:05 METAR KWST 231005Z AUTO 13008KT 4SM BR OVC005 23/23 A3016 RMK AO2 T02330228 =
2018-07-23 05:53 METAR KWST 230953Z AUTO 13007KT 4SM BR OVC004 23/23 A3016 RMK AO2 SLP212
                 T02330228 =
2018-07-23 05:30 METAR KWST 230930Z AUTO 12007KT 6SM BR OVC004 23/23 A3015 RMK AO2 T02330228 =
2018-07-23 04:53 METAR KWST 230853Z AUTO 13007KT 6SM BR OVC005 23/23 A3014 RMK AO2 SLP206
                 T02330228 53002 =
2018-07-23 04:06 METAR KWST 230806Z AUTO 13008KT 7SM BKN007 BKN012 OVC050 23/22 A3013 RMK AO2
                 T02280222 =
2018-07-23 03:53 METAR KWST 230753Z AUTO 12007KT 8SM FEW007 BKN012 OVC050 23/22 A3013 RMK AO2
                 SLP203 T02280222 =
2018-07-23 03:44 METAR KWST 230744Z AUTO 13006KT 8SM BKN011 BKN026 OVC050 23/22 A3013 RMK AO2
                 T02280222 =
2018-07-23 03:19 METAR KWST 230719Z AUTO 14007KT 6SM BR SCT004 OVC025 23/22 A3014 RMK AO2
                 T02280222 =
2018-07-23 02:53 METAR KWST 230653Z AUTO 14007KT 5SM BR OVC004 23/23 A3014 RMK AO2 SLP205
                 T02280228 =
2018-07-23 01:53 METAR KWST 230553Z AUTO 14008KT 5SM BR OVC004 23/23 A3014 RMK AO2 SLP204
                 T02330228 10233 20228 50002 =
2018-07-23 01:09 METAR KWST 230509Z AUTO 13010KT 6SM BR BKN004 OVC021 23/23 A3014 RMK AO2
                 T02280228 =
2018-07-23 00:53 METAR KWST 230453Z AUTO 14008G17KT 6SM BR FEW005 OVC021 23/23 A3014 RMK AO2
                 SLP206 T02330228 402560200 =
2018-07-23 00:31 METAR KWST 230431Z AUTO 13007KT 6SM BR SCT005 BKN019 BKN026 23/23 A3014 RMK AO2
                 T02330228 =
2018-07-23 00:17 METAR KWST 230417Z AUTO 14009KT 6SM BR FEW006 SCT021 23/23 A3014 RMK AO2
                 T02330228 =
2018-07-22 23:53 METAR KWST 230353Z AUTO 13009KT 6SM BR CLR 23/23 A3014 RMK AO2 SLP204 T02330228
                 =
2018-07-22 22:53 METAR KWST 230253Z AUTO 14007KT 5SM BR FEW005 BKN037 OVC055 23/23 A3013 RMK AO2
                 SLP203 T02330228 51012 =
2018-07-22 22:36 METAR KWST 230236Z AUTO 13009KT 6SM BR FEW006 BKN038 OVC055 23/23 A3013 RMK AO2
                 T02330228 =
2018-07-22 22:11 METAR KWST 230211Z AUTO 14007KT 6SM BR FEW007 BKN017 OVC048 23/23 A3013 RMK AO2
                 T02330228 =
2018-07-22 21:53 METAR KWST 230153Z AUTO 13006KT 6SM BR OVC017 23/23 A3013 RMK AO2 SLP202
                 T02330228 =
2018-07-22 21:00 METAR KWST 230100Z AUTO 12007KT 7SM SCT005 BKN020 OVC027 23/23 A3012 RMK AO2
                 T02280228 =
2018-07-22 20:53 METAR KWST 230053Z AUTO 12009KT 7SM BKN005 BKN020 OVC027 23/22 A3012 RMK AO2
                 SLP197 T02280222 =
2018-07-22 20:24 METAR KWST 230024Z AUTO 10009G17KT 6SM BR BKN005 BKN009 OVC019 23/22 A3010 RMK
                 AO2 T02280222 =
2018-07-22 20:03 METAR KWST 230003Z AUTO 11009KT 7SM SCT008 BKN014 OVC019 23/22 A3010 RMK AO2
                 T02280222 =
2018-07-22 19:53 METAR KWST 222353Z AUTO 12010G16KT 8SM OVC014 23/22 A3010 RMK AO2 RAB15E38
                 SLP191 P0000 60000 T02330222 10256 20228 53003 =
2018-07-22 19:27 METAR KWST 222327Z AUTO 11009KT 8SM -RA SCT005 BKN021 OVC026 23/22 A3009 RMK AO2
                 RAB15 P0000 T02280222 =
2018-07-22 18:53 METAR KWST 222253Z AUTO 10009KT 9SM BKN005 OVC035 23/22 A3009 RMK AO2 RAB17E26
                 SLP188 P0000 T02330222 =
2018-07-22 18:13 METAR KWST 222213Z AUTO 11008KT 9SM BKN007 BKN041 OVC120 23/22 A3009 RMK AO2
                 T02330222 =
2018-07-22 18:02 METAR KWST 222202Z AUTO 10008KT 9SM SCT005 BKN039 BKN120 23/22 A3009 RMK AO2
                 T02330222 =
2018-07-22 17:53 METAR KWST 222153Z AUTO 11008KT 9SM BKN005 BKN026 BKN039 23/22 A3009 RMK AO2
                 SLP188 T02280222 =
2018-07-22 16:53 METAR KWST 222053Z AUTO 11012KT 10SM SCT006 BKN009 OVC033 23/22 A3009 RMK AO2
                 CIG 008V012 SLP189 T02280217 53008 =
2018-07-22 16:43 METAR KWST 222043Z AUTO 11011KT 10SM BKN009 OVC055 23/22 A3010 RMK AO2 CIG
                 006V012 T02330217 =
2018-07-22 16:30 METAR KWST 222030Z AUTO 11009KT 10SM FEW007 BKN010 OVC055 24/22 A3009 RMK AO2
                 T02390217 =
2018-07-22 16:11 METAR KWST 222011Z AUTO 11011KT 10SM OVC010 24/22 A3009 RMK AO2 T02390217 =
2018-07-22 15:53 METAR KWST 221953Z AUTO 12010KT 10SM OVC009 24/22 A3008 RMK AO2 SLP184 T02390217
                 =
2018-07-22 15:25 METAR KWST 221925Z AUTO 15012G21KT 10SM BKN009 25/22 A3008 RMK AO2 CIG 008V012
                 T02500217 =
2018-07-22 15:19 METAR KWST 221919Z AUTO 14010G17KT 10SM SCT011 25/22 A3008 RMK AO2 T02500222 =
2018-07-22 15:01 METAR KWST 221901Z AUTO 13009G16KT 10SM BKN011 BKN049 24/22 A3007 RMK AO2
                 T02440217 =
2018-07-22 14:53 METAR KWST 221853Z AUTO 13011G17KT 10SM SCT013 BKN050 24/22 A3008 RMK AO2 SLP184
                 T02440217 =
2018-07-22 13:53 METAR KWST 221753Z AUTO 14012G17KT 10SM CLR 25/22 A3007 RMK AO2 SLP182 60003
                 T02500217 10256 20211 53007 =
2018-07-22 12:53 METAR KWST 221653Z AUTO 15012KT 9SM CLR 24/22 A3006 RMK AO2 RAB17E28 SLP180
                 P0000 T02440222 =
2018-07-22 12:04 METAR KWST 221604Z AUTO 14011G17KT 7SM FEW004 24/22 A3005 RMK AO2 T02440222
2018-07-22 11:53 METAR KWST 221553Z AUTO 14011KT 7SM BKN004 24/23 A3005 RMK AO2 RAB32E41 SLP175
                 P0000 T02390228 =
2018-07-22 11:21 METAR KWST 221521Z AUTO 14007G16KT 5SM BR OVC004 23/22 A3005 RMK AO2 T02280222 =

Support USWX by starting your Amazon purchase here.